Fairview, Kentucky
Current Conditions -  °F | °C
As of 10:58 AM on Saturday 20 Dec 2014 (Local Time) from KHOP Reporting Station
Overcast Overcast  
Wind Chill: 36°   Ceiling: 5500
Heat Index: 36°   Visibility: 10mi
Dew Point: 28°   Wind: 2mph
Humidity: 71%   Direction: NA
Pressure: 30.29"   Gusts: NA
Location:  36.84°N, 87.3°W
Report Text: KHOP 201658Z AUTO VRB02KT 10SM OVC055 02/M02 A3029 RMK AO2 SLP263 T00221025
Loading
Personal Weather Stations






























Interactive Weather Map New forecast layout! Learn more

10-Day Weather Forecast

Advertisements
Track Severe Weather on mobile